Nearby METAR Reports

Live Weather Gauges   
Station Dashboard   
KEIK - Erie Muni, Colorado, USA
Distance from station: NW 9mi, 15km
Updated: Sat, 02-Mar-2024 5:15pm MST
Few Clouds
Few Clouds
 Wind from SW
Wind: SW 13 mph , 20 km/h
Temperature: 63°F , 17°C
Dew Point: 5°F , -15°C
Humidity: 10%
Barometer: 29.42 inHg , 996.3 hPa
Clouds: Few Clouds
Visibility: 9 miles , 14 km
Cloud details: Few Clouds 16000 ft
2024/03/03 00:15 KEIK 030015Z AUTO 22011KT 9SM FEW160 17/M15 A2942 RMK AO2 WSHFT 0010 T01681146
KBJC - Broomfield/Jeffco, Colorado, USA
Distance from station: W 10mi, 16km
Updated: Sat, 02-Mar-2024 4:45pm MST
Partly cloudy
Partly cloudy
 Wind from S
Wind: S 23 mph , 37 km/h, Gust: 33 mph , 54 km/h
Temperature: 64°F , 18°C
Dew Point: 7°F , -14°C
Humidity: 10%
Barometer: 29.44 inHg , 997 hPa
Clouds: Partly cloudy
Visibility: 10 miles , 16 km
Cloud details: Partly cloudy 12000 ft
2024/03/02 23:45 KBJC 022345Z 18020G29KT 10SM SCT120 18/M14 A2944
KDEN - Denver (DIA), Colorado, USA
Distance from station: ESE 16mi, 26km
Updated: Sat, 02-Mar-2024 4:53pm MST
Few Clouds
Few Clouds
 Wind from WSW
Wind: WSW 23 mph , 37 km/h, Gust: 32 mph , 52 km/h
Temperature: 64°F , 18°C
Dew Point: 3°F , -16°C
Humidity: 8%
Barometer: 29.45 inHg , 997.3 hPa
Clouds: Few Clouds
Visibility: 10 miles , 16 km
Cloud details: Few Clouds 10000 ft
Few Clouds 15000 ft
Few Clouds 22000 ft
2024/03/02 23:53 KDEN 022353Z 24020G28KT 10SM FEW100 FEW150 FEW220 18/M16 A2945 RMK AO2 PK WND 24042/2324 SLP930 T01781161 10206 20172 56015
 
KBKF - Buckley ANGB/Den, Colorado, USA
Distance from station: SE 17mi, 27km
Updated: Sat, 02-Mar-2024 4:58pm MST
Partly cloudy
Partly cloudy
 Wind from SW
Wind: SW 20 mph , 31 km/h, Gust: 30 mph , 48 km/h
Temperature: 63°F , 17°C
Dew Point: -2°F , -19°C
Humidity: 7%
Barometer: 29.46 inHg , 997.6 hPa
Clouds: Partly cloudy
Visibility: 10 miles , 16 km
Cloud details: Few Clouds 11000 ft
Few Clouds 16000 ft
Partly cloudy 22000 ft
2024/03/02 23:58 KBKF 022358Z 22017G26KT 10SM FEW110 FEW160 SCT220 17/M19 A2946 RMK AO2A PK WND 22030/08 SLP934 T01691192 10197 20169 57012
KBDU - Boulder Muni, Colorado, USA
Distance from station: WNW 18mi, 29km
Updated: Sat, 02-Mar-2024 5:15pm MST
Clear
Clear
 Wind from SW
Wind: SW 13 mph , 20 km/h, Gust: 17 mph , 28 km/h
Temperature: 63°F , 17°C
Dew Point: 9°F , -13°C
Humidity: 12%
Barometer: 29.42 inHg , 996.3 hPa
Clouds: Clear
Visibility: 10 miles , 16 km
2024/03/03 00:15 KBDU 030015Z AUTO 23011G15KT 10SM CLR 17/M13 A2942 RMK AO2
KLMO - Longmont/Vbrand, Colorado, USA
Distance from station: NW 21mi, 34km
Updated: Sat, 02-Mar-2024 5:15pm MST
Partly cloudy
Partly cloudy
 Wind from WSW
Wind: WSW 15 mph , 24 km/h, Gust: 24 mph , 39 km/h
Temperature: 64°F , 18°C
Dew Point: 7°F , -14°C
Humidity: 10%
Barometer: 29.43 inHg , 996.6 hPa
Clouds: Partly cloudy
Visibility: 10 miles , 16 km
Cloud details: Partly cloudy 12000 ft
2024/03/03 00:15 KLMO 030015Z AUTO 24013G21KT 10SM SCT120 18/M14 A2943 RMK AO2 T01801141
 
KAPA - Denver/Arapahoe, Colorado, USA
Distance from station: S 25mi, 39km
Updated: Sat, 02-Mar-2024 4:53pm MST
Few Clouds
Few Clouds
 Wind from WSW
Wind: WSW 16 mph , 26 km/h, Gust: 37 mph , 59 km/h
Temperature: 61°F , 16°C
Dew Point: 3°F , -16°C
Humidity: 10%
Barometer: 29.48 inHg , 998.3 hPa
Clouds: Few Clouds
Visibility: 10 miles , 16 km
Cloud details: Few Clouds 10000 ft
Few Clouds 17000 ft
2024/03/02 23:53 KAPA 022353Z 24014G32KT 10SM FEW100 FEW170 16/M16 A2948 RMK AO2 PK WND 23033/2342 SLP953 T01611156 10189 20156 58014
KFNL - Ft Collins/Lovel, Colorado, USA
Distance from station: N 37mi, 60km
Updated: Sat, 02-Mar-2024 4:56pm MST
Clear
Clear
 Wind from W
Wind: W 8 mph , 13 km/h
Temperature: 59°F , 15°C
Dew Point: 12°F , -11°C
Humidity: 16%
Barometer: 29.43 inHg , 996.6 hPa
Clouds: Clear
Visibility: 10 miles , 16 km
2024/03/02 23:56 KFNL 022356Z 28007KT 10SM CLR 15/M11 A2943 RMK AO2 SLP945 T01501111 10206 20150 58017
KGXY - Greeley/Weld, Colorado, USA
Distance from station: NNE 38mi, 62km
Updated: Sat, 02-Mar-2024 4:56pm MST
Clear
Clear
 Wind from W
Wind: W 12 mph , 19 km/h
Temperature: 64°F , 18°C
Dew Point: 10°F , -12°C
Humidity: 12%
Barometer: 29.43 inHg , 996.6 hPa
Clouds: Clear
Visibility: 10 miles , 16 km
2024/03/02 23:56 KGXY 022356Z 28010KT 10SM CLR 18/M12 A2943 RMK AO2 SLP963 T01781122 10211 20167 56020
 
KMNH - Monument/Elbert, Colorado, USA
Distance from station: SSE 51mi, 81km
Updated: Sat, 02-Mar-2024 5:15pm MST
Clear
Clear
 Wind from SSW
Wind: SSW 22 mph , 35 km/h, Gust: 29 mph , 46 km/h
Barometer: 29.57 inHg , 1001.4 hPa
Clouds: Clear
Visibility: 10 miles , 16 km
2024/03/03 00:15 KMNH 030015Z AUTO 21019G25KT 10SM CLR A2957 RMK AO2
KAFF - USAF Academy/Cos, Colorado, USA
Distance from station: S 66mi, 106km
Updated: Sat, 02-Mar-2024 4:55pm MST
Clear
Clear
 Wind from SSW
Wind: SSW 25 mph , 41 km/h, Gust: 36 mph , 57 km/h
Temperature: 59°F , 15°C
Dew Point: -2°F , -19°C
Humidity: 8%
Barometer: 29.55 inHg , 1000.7 hPa
Clouds: Clear
Visibility: 10 miles , 16 km
2024/03/02 23:55 KAFF 022355Z AUTO 21022G31KT 10SM CLR 15/M19 A2955 RMK AO2 PK WND 23034/43 SLP947 T01451194 10176 20138 55010
K4BM - Wilkerson Pass, Colorado, USA
Distance from station: SSW 68mi, 109km
Updated: Sat, 02-Mar-2024 5:15pm MST
Clear
Clear
 Wind from SSE
Wind: SSE 32 mph , 52 km/h, Gust: 46 mph , 74 km/h
Temperature: 34°F , 1°C
Wind Chill: 20°F , -7°C
Dew Point: 7°F , -14°C
Humidity: 32%
Barometer: 29.68 inHg , 1005.1 hPa
Clouds: Clear
Visibility: 10 miles , 16 km
2024/03/03 00:15 K4BM 030015Z AUTO 16028G40KT 10SM CLR 01/M14 A2968 RMK AO2
 
KFLY - Co Spngs Meadow, Colorado, USA
Distance from station: SSE 70mi, 112km
Updated: Sat, 02-Mar-2024 5:15pm MST
Clear
Clear
 Wind from SW
Wind: SW 24 mph , 39 km/h, Gust: 37 mph , 59 km/h
Temperature: 55°F , 13°C
Dew Point: 7°F , -14°C
Humidity: 14%
Barometer: 29.60 inHg , 1002.4 hPa
Clouds: Clear
Visibility: 10 miles , 16 km
2024/03/03 00:15 KFLY 030015Z AUTO 22021G32KT 10SM CLR 13/M14 A2960 RMK AO2 T01291138
KCCU - Red Cliff Pass, Colorado, USA
Distance from station: WSW 72mi, 116km
Updated: Sat, 02-Mar-2024 5:15pm MST
Overcast
Overcast
 Wind from S
Wind: S 17 mph , 28 km/h, Gust: 33 mph , 54 km/h
Temperature: 30°F , -1°C
Wind Chill: 18°F , -8°C
Dew Point: 10°F , -12°C
Humidity: 43%
Barometer: 29.68 inHg , 1005.1 hPa
Clouds: Overcast
Visibility: 10 miles , 16 km
Cloud details: Partly cloudy 4400 ft
Mostly cloudy 4900 ft
Overcast 6500 ft
2024/03/03 00:15 KCCU 030015Z AUTO 17015G29KT 10SM SCT044 BKN049 OVC065 M01/M12 A2968 RMK AO2
K20V - Kremmling Awos, Colorado, USA
Distance from station: W 77mi, 123km
Updated: Sat, 02-Mar-2024 5:15pm MST
Overcast
Overcast
 Wind from WSW
Wind: WSW 14 mph , 22 km/h, Gust: 32 mph , 52 km/h
Temperature: 41°F , 5°C
Wind Chill: 33°F , 1°C
Dew Point: 19°F , -7°C
Humidity: 42%
Barometer: 29.53 inHg , 1000 hPa
Clouds: Overcast
Visibility: 10 miles , 16 km
Cloud details: Partly cloudy 6500 ft
Mostly cloudy 7500 ft
Overcast 9000 ft
2024/03/03 00:15 K20V 030015Z AUTO 24012G28KT 10SM SCT065 BKN075 OVC090 05/M07 A2953 RMK AO2
 
KCOS - Colorado Springs, Colorado, USA
Distance from station: S 77mi, 124km
Updated: Sat, 02-Mar-2024 4:54pm MST
Few Clouds
Few Clouds
 Wind from SSW
Wind: SSW 22 mph , 35 km/h, Gust: 43 mph , 69 km/h
Temperature: 61°F , 16°C
Dew Point: 3°F , -16°C
Humidity: 10%
Barometer: 29.56 inHg , 1001 hPa
Clouds: Few Clouds
Visibility: 10 miles , 16 km
Cloud details: Few Clouds 9000 ft
Few Clouds 22000 ft
2024/03/02 23:54 KCOS 022354Z 21019G37KT 10SM FEW090 FEW220 16/M16 A2956 RMK AO2 PK WND 22047/2309 SLP966 CCSL NE-SE-SW T01561161 10189 20156 55017
KLIC - Limon, Colorado, USA
Distance from station: ESE 81mi, 130km
Updated: Sat, 02-Mar-2024 4:55pm MST
Clear
Clear
 Wind from SSW
Wind: SSW 21 mph , 33 km/h, Gust: 33 mph , 54 km/h
Temperature: 63°F , 17°C
Dew Point: 3°F , -16°C
Humidity: 9%
Barometer: 29.51 inHg , 999.3 hPa
Clouds: Clear
Visibility: 10 miles , 16 km
2024/03/02 23:55 KLIC 022355Z AUTO 21018G29KT 10SM CLR 17/M16 A2951 RMK AO2 PK WND 19033/2313 SLP963 T01721156 10206 20172 56022
KFEW - Warren Air Base, Wyoming, USA
Distance from station: N 84mi, 135km
Updated: Sat, 02-Mar-2024 4:55pm MST
Clear
Clear
 Wind from SW
Wind: SW 26 mph , 43 km/h, Gust: 36 mph , 57 km/h
Temperature: 55°F , 13°C
Dew Point: 3°F , -16°C
Humidity: 12%
Barometer: 29.47 inHg , 998 hPa
Clouds: Clear
Visibility: 10 miles , 16 km
2024/03/02 23:55 KFEW 022355Z AUTO 23023G31KT 10SM CLR 13/M16 A2947 RMK AO2 PK WND 21034/08 SLP963 T01321156 10169 20131 57013 $
 
KCYS - Cheyenne, Wyoming, USA
Distance from station: N 85mi, 138km
Updated: Sat, 02-Mar-2024 4:53pm MST
Clear
Clear
 Wind from SSW
Wind: SSW 28 mph , 44 km/h, Gust: 37 mph , 59 km/h
Temperature: 57°F , 14°C
Dew Point: 9°F , -13°C
Humidity: 14%
Barometer: 29.46 inHg , 997.6 hPa
Clouds: Clear
Visibility: 10 miles , 16 km
2024/03/02 23:53 KCYS 022353Z 21024G32KT 10SM CLR 14/M13 A2946 RMK AO2 PK WND 20042/2307 SLP948 T01391133 10172 20133 56015